createdAt,value
2018-07-14T00:00:27.917Z,992.74
2018-07-14T00:01:27.937Z,992.70
2018-07-14T00:02:27.917Z,992.72
2018-07-14T00:03:27.915Z,992.69
2018-07-14T00:04:27.933Z,992.67
2018-07-14T00:05:27.916Z,992.68
2018-07-14T00:06:27.921Z,992.65
2018-07-14T00:07:27.937Z,992.63
2018-07-14T00:08:27.936Z,992.65
2018-07-14T00:09:27.945Z,992.63
2018-07-14T00:10:27.917Z,992.66
2018-07-14T00:11:27.929Z,992.66
2018-07-14T00:12:27.962Z,992.65
2018-07-14T00:13:27.930Z,992.66
2018-07-14T00:14:27.945Z,992.67
2018-07-14T00:15:27.934Z,992.68
2018-07-14T00:16:27.941Z,992.69
2018-07-14T00:17:27.932Z,992.71
2018-07-14T00:18:27.940Z,992.73
2018-07-14T00:19:33.008Z,992.68
2018-07-14T00:20:27.458Z,992.75
2018-07-14T00:21:25.943Z,992.65
2018-07-14T00:22:27.448Z,992.68
2018-07-14T00:23:27.477Z,992.67
2018-07-14T00:24:27.556Z,992.69
2018-07-14T00:25:27.449Z,992.70
2018-07-14T00:26:27.468Z,992.69
2018-07-14T00:27:27.473Z,992.72
2018-07-14T00:28:27.462Z,992.68
2018-07-14T00:29:27.470Z,992.68
2018-07-14T00:30:27.453Z,992.70
2018-07-14T00:31:27.453Z,992.68
2018-07-14T00:32:26.479Z,992.69
2018-07-14T00:33:27.468Z,992.71
2018-07-14T00:34:27.471Z,992.72
2018-07-14T00:35:27.451Z,992.74
2018-07-14T00:36:28.452Z,992.77
2018-07-14T00:37:27.452Z,992.73
2018-07-14T00:38:27.452Z,992.72
2018-07-14T00:39:27.476Z,992.73
2018-07-14T00:40:27.477Z,992.74
2018-07-14T00:41:32.759Z,992.73
2018-07-14T00:42:27.538Z,992.72
2018-07-14T00:43:27.490Z,992.73
2018-07-14T00:44:27.510Z,992.71
2018-07-14T00:45:27.480Z,992.72
2018-07-14T00:46:27.486Z,992.73
2018-07-14T00:47:27.512Z,992.73
2018-07-14T00:48:27.497Z,992.68
2018-07-14T00:49:27.524Z,992.72
2018-07-14T00:50:27.481Z,992.72
2018-07-14T00:51:27.512Z,992.70
2018-07-14T00:52:27.522Z,992.70
2018-07-14T00:53:27.482Z,992.72
2018-07-14T00:54:27.499Z,992.72
2018-07-14T00:55:27.503Z,992.73
2018-07-14T00:56:27.501Z,992.75
2018-07-14T00:57:27.500Z,992.71
2018-07-14T00:58:27.483Z,992.77
2018-07-14T00:59:27.500Z,992.77
2018-07-14T01:00:25.502Z,992.76
2018-07-14T01:01:26.985Z,992.76
2018-07-14T01:02:26.995Z,992.77
2018-07-14T01:03:27.003Z,992.77
2018-07-14T01:04:27.001Z,992.73
2018-07-14T01:05:26.985Z,992.73
2018-07-14T01:06:26.986Z,992.70
2018-07-14T01:07:26.986Z,992.69
2018-07-14T01:08:32.981Z,992.62
2018-07-14T01:09:27.057Z,992.63
2018-07-14T01:10:27.050Z,992.64
2018-07-14T01:11:26.410Z,992.64
2018-07-14T01:12:27.043Z,992.64
2018-07-14T01:13:27.021Z,992.66
2018-07-14T01:14:27.053Z,992.71
2018-07-14T01:15:27.049Z,992.70
2018-07-14T01:16:27.022Z,992.71
2018-07-14T01:17:27.024Z,992.66
2018-07-14T01:18:27.039Z,992.69
2018-07-14T01:19:27.039Z,992.65
2018-07-14T01:20:27.022Z,992.69
2018-07-14T01:21:27.025Z,992.73
2018-07-14T01:22:27.022Z,992.72
2018-07-14T01:23:27.038Z,992.77
2018-07-14T01:24:27.038Z,992.77
2018-07-14T01:25:27.025Z,992.75
2018-07-14T01:26:27.026Z,992.73
2018-07-14T01:27:27.023Z,992.74
2018-07-14T01:28:27.024Z,992.76
2018-07-14T01:29:27.061Z,992.76
2018-07-14T01:30:27.038Z,992.76
2018-07-14T01:31:27.043Z,992.77
2018-07-14T01:32:27.052Z,992.75
2018-07-14T01:33:27.032Z,992.74
2018-07-14T01:34:27.048Z,992.77
2018-07-14T01:35:27.028Z,992.73
2018-07-14T01:36:27.046Z,992.77
2018-07-14T01:37:27.064Z,992.78
2018-07-14T01:38:27.028Z,992.80
2018-07-14T01:39:27.047Z,992.81
2018-07-14T01:40:27.044Z,992.84
2018-07-14T01:41:27.049Z,992.80
2018-07-14T01:42:27.027Z,992.82
2018-07-14T01:43:27.027Z,992.82
2018-07-14T01:44:26.548Z,992.79
2018-07-14T01:45:26.558Z,992.84
2018-07-14T01:46:26.527Z,992.82
2018-07-14T01:47:26.527Z,992.78
2018-07-14T01:48:26.527Z,992.78
2018-07-14T01:49:26.530Z,992.77
2018-07-14T01:50:24.995Z,992.78
2018-07-14T01:51:26.541Z,992.72
2018-07-14T01:52:26.553Z,992.78
2018-07-14T01:53:26.542Z,992.76
2018-07-14T01:54:26.562Z,992.70
2018-07-14T01:55:26.557Z,992.73
2018-07-14T01:56:26.531Z,992.74
2018-07-14T01:57:26.529Z,992.67
2018-07-14T01:58:26.529Z,992.75
2018-07-14T01:59:26.529Z,992.75
2018-07-14T02:00:26.553Z,992.77
2018-07-14T02:01:24.856Z,992.75
2018-07-14T02:02:26.559Z,992.74
2018-07-14T02:03:26.554Z,992.70
2018-07-14T02:04:26.555Z,992.72
2018-07-14T02:05:26.549Z,992.73
2018-07-14T02:06:26.546Z,992.74
2018-07-14T02:07:26.531Z,992.66
2018-07-14T02:08:26.531Z,992.70
2018-07-14T02:09:26.549Z,992.66
2018-07-14T02:10:26.548Z,992.70
2018-07-14T02:11:26.532Z,992.67
2018-07-14T02:12:26.532Z,992.70
2018-07-14T02:13:26.534Z,992.70
2018-07-14T02:14:27.558Z,992.68
2018-07-14T02:15:26.549Z,992.71
2018-07-14T02:16:26.533Z,992.75
2018-07-14T02:17:26.533Z,992.69
2018-07-14T02:18:26.533Z,992.70
2018-07-14T02:19:26.533Z,992.72
2018-07-14T02:20:26.568Z,992.71
2018-07-14T02:21:26.547Z,992.69
2018-07-14T02:22:26.556Z,992.68
2018-07-14T02:23:26.533Z,992.68
2018-07-14T02:24:26.551Z,992.67
2018-07-14T02:25:26.535Z,992.65
2018-07-14T02:26:26.550Z,992.68
2018-07-14T02:27:26.535Z,992.68
2018-07-14T02:28:26.549Z,992.69
2018-07-14T02:29:26.041Z,992.65
2018-07-14T02:30:27.055Z,992.67
2018-07-14T02:31:26.052Z,992.64
2018-07-14T02:32:26.040Z,992.68
2018-07-14T02:33:26.037Z,992.67
2018-07-14T02:34:26.037Z,992.70
2018-07-14T02:35:24.474Z,992.70
2018-07-14T02:36:26.069Z,992.73
2018-07-14T02:37:26.053Z,992.72
2018-07-14T02:38:26.040Z,992.75
2018-07-14T02:39:26.037Z,992.75
2018-07-14T02:40:26.038Z,992.73
2018-07-14T02:41:26.054Z,992.75
2018-07-14T02:42:26.046Z,992.73
2018-07-14T02:43:26.052Z,992.74
2018-07-14T02:44:26.053Z,992.76
2018-07-14T02:45:26.053Z,992.77
2018-07-14T02:46:26.068Z,992.74
2018-07-14T02:47:26.039Z,992.77
2018-07-14T02:48:26.059Z,992.76
2018-07-14T02:49:26.051Z,992.74
2018-07-14T02:50:26.042Z,992.77
2018-07-14T02:51:26.072Z,992.77
2018-07-14T02:52:26.060Z,992.77
2018-07-14T02:53:26.054Z,992.79
2018-07-14T02:54:26.040Z,992.81
2018-07-14T02:55:26.043Z,992.80
2018-07-14T02:56:26.057Z,992.81
2018-07-14T02:57:26.041Z,992.78
2018-07-14T02:58:26.052Z,992.76
2018-07-14T02:59:26.056Z,992.80
2018-07-14T03:00:26.042Z,992.78
2018-07-14T03:01:26.058Z,992.79
2018-07-14T03:02:26.055Z,992.76
2018-07-14T03:03:27.047Z,992.77
2018-07-14T03:04:26.044Z,992.76
2018-07-14T03:05:26.063Z,992.75
2018-07-14T03:06:26.058Z,992.79
2018-07-14T03:07:26.044Z,992.80
2018-07-14T03:08:26.044Z,992.81
2018-07-14T03:09:26.054Z,992.85
2018-07-14T03:10:26.044Z,992.89
2018-07-14T03:11:26.071Z,992.88
2018-07-14T03:12:26.046Z,992.89
2018-07-14T03:13:26.045Z,992.89
2018-07-14T03:14:24.050Z,992.92
2018-07-14T03:15:25.545Z,992.94
2018-07-14T03:16:25.548Z,992.92
2018-07-14T03:17:25.575Z,992.94
2018-07-14T03:18:25.579Z,992.98
2018-07-14T03:19:25.548Z,992.94
2018-07-14T03:20:25.546Z,992.93
2018-07-14T03:21:25.546Z,992.92
2018-07-14T03:22:25.561Z,992.95
2018-07-14T03:23:25.549Z,992.95
2018-07-14T03:24:25.572Z,992.92
2018-07-14T03:25:25.550Z,992.95
2018-07-14T03:26:25.547Z,992.94
2018-07-14T03:27:25.564Z,992.94
2018-07-14T03:28:25.547Z,992.94
2018-07-14T03:29:25.547Z,992.92
2018-07-14T03:30:25.557Z,992.92
2018-07-14T03:31:25.577Z,992.93
2018-07-14T03:32:25.564Z,992.91
2018-07-14T03:33:25.554Z,992.93
2018-07-14T03:34:25.549Z,992.96
2018-07-14T03:35:25.548Z,992.98
2018-07-14T03:36:25.553Z,992.98
2018-07-14T03:37:25.580Z,992.91
2018-07-14T03:38:25.567Z,992.91
2018-07-14T03:39:25.564Z,992.93
2018-07-14T03:40:25.550Z,992.91
2018-07-14T03:41:25.550Z,992.94
2018-07-14T03:42:23.758Z,992.93
2018-07-14T03:43:25.551Z,992.97
2018-07-14T03:44:25.557Z,992.96
2018-07-14T03:45:25.561Z,992.95
2018-07-14T03:46:25.576Z,993.04
2018-07-14T03:47:25.574Z,993.03
2018-07-14T03:48:25.568Z,993.03
2018-07-14T03:49:25.564Z,993.02
2018-07-14T03:50:25.552Z,993.02
2018-07-14T03:51:25.557Z,993.04
2018-07-14T03:52:25.590Z,993.03
2018-07-14T03:53:25.567Z,993.07
2018-07-14T03:54:25.577Z,993.05
2018-07-14T03:55:25.553Z,993.02
2018-07-14T03:56:25.553Z,993.01
2018-07-14T03:57:25.576Z,992.99
2018-07-14T03:58:25.561Z,993.01
2018-07-14T03:59:25.084Z,993.02
2018-07-14T04:00:25.076Z,993.01
2018-07-14T04:01:25.085Z,992.99
2018-07-14T04:02:25.071Z,993.02
2018-07-14T04:03:25.069Z,993.03
2018-07-14T04:04:25.080Z,992.98
2018-07-14T04:05:25.057Z,993.00
2018-07-14T04:06:25.109Z,992.98
2018-07-14T04:07:25.071Z,993.01
2018-07-14T04:08:25.073Z,993.01
2018-07-14T04:09:25.056Z,992.98
2018-07-14T04:10:25.056Z,993.01
2018-07-14T04:11:26.057Z,992.98
2018-07-14T04:12:25.067Z,993.01
2018-07-14T04:13:25.077Z,993.02
2018-07-14T04:14:25.068Z,993.01
2018-07-14T04:15:25.081Z,993.01
2018-07-14T04:16:25.089Z,993.05
2018-07-14T04:17:25.071Z,993.02
2018-07-14T04:18:25.073Z,993.00
2018-07-14T04:19:25.073Z,993.00
2018-07-14T04:20:25.088Z,993.01
2018-07-14T04:21:23.336Z,993.03
2018-07-14T04:22:25.062Z,993.06
2018-07-14T04:23:25.090Z,993.03
2018-07-14T04:24:26.068Z,993.02
2018-07-14T04:25:25.071Z,993.07
2018-07-14T04:26:25.071Z,993.04
2018-07-14T04:27:25.075Z,993.02
2018-07-14T04:28:25.078Z,993.02
2018-07-14T04:29:25.072Z,993.01
2018-07-14T04:30:25.068Z,992.96
2018-07-14T04:31:25.085Z,992.98
2018-07-14T04:32:23.222Z,992.93
2018-07-14T04:33:25.092Z,992.99
2018-07-14T04:34:25.071Z,992.96
2018-07-14T04:35:25.081Z,992.95
2018-07-14T04:36:25.061Z,992.95
2018-07-14T04:37:25.082Z,992.93
2018-07-14T04:38:25.097Z,992.99
2018-07-14T04:39:25.064Z,992.97
2018-07-14T04:40:25.066Z,992.95
2018-07-14T04:41:25.072Z,992.98
2018-07-14T04:42:25.112Z,992.97
2018-07-14T04:43:25.076Z,992.98
2018-07-14T04:44:24.591Z,992.99
2018-07-14T04:45:24.566Z,992.99
2018-07-14T04:46:24.564Z,992.97
2018-07-14T04:47:24.563Z,992.95
2018-07-14T04:48:24.567Z,992.95
2018-07-14T04:49:24.617Z,992.98
2018-07-14T04:50:24.564Z,992.98
2018-07-14T04:51:24.564Z,993.00
2018-07-14T04:52:24.565Z,992.99
2018-07-14T04:53:24.564Z,993.01
2018-07-14T04:54:24.581Z,993.02
2018-07-14T04:55:24.575Z,993.00
2018-07-14T04:56:24.586Z,993.03
2018-07-14T04:57:24.565Z,993.04
2018-07-14T04:58:24.566Z,993.04
2018-07-14T04:59:24.581Z,993.04
2018-07-14T05:00:22.904Z,993.04
2018-07-14T05:01:24.566Z,993.05
2018-07-14T05:02:24.604Z,993.06
2018-07-14T05:03:24.586Z,993.06
2018-07-14T05:04:24.584Z,993.04
2018-07-14T05:05:24.567Z,993.06
2018-07-14T05:06:24.610Z,993.04
2018-07-14T05:07:24.569Z,993.04
2018-07-14T05:08:24.569Z,993.02
2018-07-14T05:09:24.598Z,993.03
2018-07-14T05:10:24.600Z,993.00
2018-07-14T05:11:24.593Z,993.04
2018-07-14T05:12:24.577Z,993.05
2018-07-14T05:13:24.568Z,993.04
2018-07-14T05:14:31.639Z,993.09
2018-07-14T05:15:30.292Z,993.07
2018-07-14T05:16:24.655Z,993.10
2018-07-14T05:17:24.656Z,993.10
2018-07-14T05:18:24.638Z,993.12
2018-07-14T05:19:24.676Z,993.11
2018-07-14T05:20:24.666Z,993.13
2018-07-14T05:21:24.718Z,993.10
2018-07-14T05:22:24.660Z,993.09
2018-07-14T05:23:24.155Z,993.13
2018-07-14T05:24:24.156Z,993.12
2018-07-14T05:25:24.160Z,993.16
2018-07-14T05:26:24.154Z,993.15
2018-07-14T05:27:24.150Z,993.14
2018-07-14T05:28:24.168Z,993.16
2018-07-14T05:29:24.156Z,993.14
2018-07-14T05:30:24.161Z,993.17
2018-07-14T05:31:25.165Z,993.20
2018-07-14T05:32:24.146Z,993.16
2018-07-14T05:33:24.157Z,993.17
2018-07-14T05:34:24.158Z,993.21
2018-07-14T05:35:24.161Z,993.21
2018-07-14T05:36:24.147Z,993.27
2018-07-14T05:37:24.182Z,993.27
2018-07-14T05:38:24.154Z,993.26
2018-07-14T05:39:22.513Z,993.27
2018-07-14T05:40:24.145Z,993.30
2018-07-14T05:41:24.166Z,993.29
2018-07-14T05:42:24.151Z,993.28
2018-07-14T05:43:24.168Z,993.27
2018-07-14T05:44:24.145Z,993.28
2018-07-14T05:45:24.172Z,993.33
2018-07-14T05:46:24.143Z,993.32
2018-07-14T05:47:24.144Z,993.35
2018-07-14T05:48:24.143Z,993.31
2018-07-14T05:49:24.143Z,993.29
2018-07-14T05:50:24.174Z,993.30
2018-07-14T05:51:24.144Z,993.25
2018-07-14T05:52:24.143Z,993.32
2018-07-14T05:53:24.144Z,993.32
2018-07-14T05:54:24.148Z,993.32
2018-07-14T05:55:24.161Z,993.34
2018-07-14T05:56:24.171Z,993.36
2018-07-14T05:57:24.148Z,993.36
2018-07-14T05:58:24.146Z,993.38
2018-07-14T05:59:24.144Z,993.36
2018-07-14T06:00:24.163Z,993.36
2018-07-14T06:01:24.147Z,993.36
2018-07-14T06:02:25.152Z,993.38
2018-07-14T06:03:24.170Z,993.36
2018-07-14T06:04:24.146Z,993.36
2018-07-14T06:05:24.161Z,993.38
2018-07-14T06:06:30.990Z,993.39
2018-07-14T06:07:22.181Z,993.41
2018-07-14T06:08:23.691Z,993.40
2018-07-14T06:09:23.686Z,993.39
2018-07-14T06:10:23.704Z,993.38
2018-07-14T06:11:29.699Z,993.36
2018-07-14T06:12:23.719Z,993.38
2018-07-14T06:13:23.710Z,993.35
2018-07-14T06:14:23.738Z,993.36
2018-07-14T06:15:23.745Z,993.37
2018-07-14T06:16:24.721Z,993.38
2018-07-14T06:17:23.727Z,993.34
2018-07-14T06:18:24.738Z,993.39
2018-07-14T06:19:29.147Z,993.37
2018-07-14T06:20:23.811Z,993.35
2018-07-14T06:21:23.744Z,993.37
2018-07-14T06:22:23.761Z,993.37
2018-07-14T06:23:23.793Z,993.38
2018-07-14T06:24:23.744Z,993.39
2018-07-14T06:25:23.759Z,993.39
2018-07-14T06:26:23.761Z,993.41
2018-07-14T06:27:23.745Z,993.43
2018-07-14T06:28:23.745Z,993.41
2018-07-14T06:29:23.745Z,993.41
2018-07-14T06:30:23.760Z,993.42
2018-07-14T06:31:23.766Z,993.44
2018-07-14T06:32:23.754Z,993.44
2018-07-14T06:33:23.780Z,993.41
2018-07-14T06:34:21.896Z,993.39
2018-07-14T06:35:23.769Z,993.39
2018-07-14T06:36:23.769Z,993.38
2018-07-14T06:37:24.755Z,993.42
2018-07-14T06:38:23.955Z,993.38
2018-07-14T06:39:23.748Z,993.37
2018-07-14T06:40:23.777Z,993.36
2018-07-14T06:41:23.757Z,993.40
2018-07-14T06:42:23.768Z,993.38
2018-07-14T06:43:23.748Z,993.38
2018-07-14T06:44:23.748Z,993.37
2018-07-14T06:45:23.274Z,993.37
2018-07-14T06:46:23.253Z,993.34
2018-07-14T06:47:23.249Z,993.36
2018-07-14T06:48:23.249Z,993.38
2018-07-14T06:49:23.249Z,993.35
2018-07-14T06:50:21.723Z,993.34
2018-07-14T06:51:23.277Z,993.35
2018-07-14T06:52:23.271Z,993.32
2018-07-14T06:53:23.264Z,993.31
2018-07-14T06:54:23.322Z,993.35
2018-07-14T06:55:23.252Z,993.37
2018-07-14T06:56:23.274Z,993.38
2018-07-14T06:57:23.251Z,993.40
2018-07-14T06:58:23.253Z,993.38
2018-07-14T06:59:23.261Z,993.37
2018-07-14T07:00:23.291Z,993.42
2018-07-14T07:01:23.266Z,993.41
2018-07-14T07:02:23.251Z,993.40
2018-07-14T07:03:23.311Z,993.38
2018-07-14T07:04:23.252Z,993.40
2018-07-14T07:05:23.252Z,993.41
2018-07-14T07:06:23.230Z,993.47
2018-07-14T07:07:23.253Z,993.48
2018-07-14T07:08:23.257Z,993.46
2018-07-14T07:09:24.254Z,993.46
2018-07-14T07:10:23.261Z,993.46
2018-07-14T07:11:23.273Z,993.46
2018-07-14T07:12:23.255Z,993.46
2018-07-14T07:13:23.256Z,993.44
2018-07-14T07:14:23.255Z,993.43
2018-07-14T07:15:24.255Z,993.44
2018-07-14T07:16:23.270Z,993.44
2018-07-14T07:17:23.256Z,993.38
2018-07-14T07:18:23.255Z,993.38
2018-07-14T07:19:24.256Z,993.39
2018-07-14T07:20:23.256Z,993.40
2018-07-14T07:21:23.316Z,993.39
2018-07-14T07:22:21.354Z,993.37
2018-07-14T07:23:23.257Z,993.36
2018-07-14T07:24:24.260Z,993.38
2018-07-14T07:25:23.257Z,993.34
2018-07-14T07:26:23.276Z,993.38
2018-07-14T07:27:22.973Z,993.36
2018-07-14T07:28:23.258Z,993.36
2018-07-14T07:29:23.258Z,993.36
2018-07-14T07:30:22.758Z,993.34
2018-07-14T07:31:22.773Z,993.36
2018-07-14T07:32:22.758Z,993.34
2018-07-14T07:33:22.759Z,993.35
2018-07-14T07:34:22.759Z,993.35
2018-07-14T07:35:22.759Z,993.33
2018-07-14T07:36:22.774Z,993.30
2018-07-14T07:37:22.760Z,993.35
2018-07-14T07:38:22.760Z,993.31
2018-07-14T07:39:22.759Z,993.32
2018-07-14T07:40:22.760Z,993.30
2018-07-14T07:41:22.777Z,993.29
2018-07-14T07:42:22.790Z,993.27
2018-07-14T07:43:22.808Z,993.28
2018-07-14T07:44:22.761Z,993.29
2018-07-14T07:45:22.764Z,993.28
2018-07-14T07:46:22.777Z,993.28
2018-07-14T07:47:22.761Z,993.25
2018-07-14T07:48:22.765Z,993.26
2018-07-14T07:49:22.761Z,993.27
2018-07-14T07:50:23.767Z,993.28
2018-07-14T07:51:22.778Z,993.31
2018-07-14T07:52:22.762Z,993.29
2018-07-14T07:53:21.015Z,993.27
2018-07-14T07:54:22.763Z,993.31
2018-07-14T07:55:22.763Z,993.34
2018-07-14T07:56:22.778Z,993.33
2018-07-14T07:57:22.762Z,993.32
2018-07-14T07:58:22.763Z,993.30
2018-07-14T07:59:22.765Z,993.29
2018-07-14T08:00:22.771Z,993.28
2018-07-14T08:01:22.764Z,993.28
2018-07-14T08:02:22.780Z,993.27
2018-07-14T08:03:22.924Z,993.19
2018-07-14T08:04:22.764Z,993.23
2018-07-14T08:05:22.765Z,993.18
2018-07-14T08:06:22.766Z,993.19
2018-07-14T08:07:22.781Z,993.18
2018-07-14T08:08:22.766Z,993.15
2018-07-14T08:09:22.767Z,993.12
2018-07-14T08:10:22.768Z,993.11
2018-07-14T08:11:22.766Z,993.13
2018-07-14T08:12:22.781Z,993.13
2018-07-14T08:13:22.768Z,993.11
2018-07-14T08:14:22.766Z,993.13
2018-07-14T08:15:22.767Z,993.14
2018-07-14T08:16:22.267Z,993.07
2018-07-14T08:17:22.282Z,993.08
2018-07-14T08:18:22.267Z,993.12
2018-07-14T08:19:20.736Z,993.09
2018-07-14T08:20:22.269Z,993.11
2018-07-14T08:21:22.269Z,993.06
2018-07-14T08:22:22.283Z,993.07
2018-07-14T08:23:22.273Z,993.08
2018-07-14T08:24:22.269Z,993.09
2018-07-14T08:25:22.273Z,993.10
2018-07-14T08:26:22.269Z,993.09
2018-07-14T08:27:22.286Z,993.07
2018-07-14T08:28:22.270Z,993.06
2018-07-14T08:29:22.271Z,993.05
2018-07-14T08:30:22.270Z,993.08
2018-07-14T08:31:22.270Z,993.04
2018-07-14T08:32:22.310Z,993.05
2018-07-14T08:33:22.271Z,993.09
2018-07-14T08:34:22.271Z,993.09
2018-07-14T08:35:22.271Z,993.07
2018-07-14T08:36:22.272Z,993.05
2018-07-14T08:37:22.288Z,993.03
2018-07-14T08:38:22.272Z,993.07
2018-07-14T08:39:22.275Z,993.04
2018-07-14T08:40:22.273Z,993.01
2018-07-14T08:41:22.272Z,993.01
2018-07-14T08:42:22.288Z,992.96
2018-07-14T08:43:22.273Z,992.95
2018-07-14T08:44:22.273Z,992.93
2018-07-14T08:45:22.277Z,992.94
2018-07-14T08:46:22.277Z,992.93
2018-07-14T08:47:22.290Z,992.96
2018-07-14T08:48:22.274Z,992.93
2018-07-14T08:49:22.276Z,992.97
2018-07-14T08:50:22.313Z,992.98
2018-07-14T08:51:22.302Z,993.01
2018-07-14T08:52:22.289Z,992.94
2018-07-14T08:53:22.275Z,992.96
2018-07-14T08:54:22.290Z,992.97
2018-07-14T08:55:22.278Z,992.96
2018-07-14T08:56:21.286Z,992.93
2018-07-14T08:57:22.283Z,992.95
2018-07-14T08:58:22.294Z,992.93
2018-07-14T08:59:22.277Z,992.95
2018-07-14T09:00:22.277Z,992.93
2018-07-14T09:01:22.277Z,992.97
2018-07-14T09:02:21.777Z,992.94
2018-07-14T09:03:21.793Z,992.95
2018-07-14T09:04:21.785Z,992.93
2018-07-14T09:05:21.778Z,992.94
2018-07-14T09:06:21.779Z,992.90
2018-07-14T09:07:20.223Z,992.92
2018-07-14T09:08:21.794Z,992.94
2018-07-14T09:09:21.781Z,992.93
2018-07-14T09:10:21.778Z,992.91
2018-07-14T09:11:21.778Z,992.89
2018-07-14T09:12:21.810Z,992.90
2018-07-14T09:13:21.795Z,992.90
2018-07-14T09:14:21.780Z,992.90
2018-07-14T09:15:21.779Z,992.84
2018-07-14T09:16:21.828Z,992.84
2018-07-14T09:17:21.780Z,992.84
2018-07-14T09:18:21.794Z,992.79
2018-07-14T09:19:21.781Z,992.82
2018-07-14T09:20:21.781Z,992.85
2018-07-14T09:21:21.782Z,992.83
2018-07-14T09:22:21.782Z,992.74
2018-07-14T09:23:21.797Z,992.76
2018-07-14T09:24:21.782Z,992.74
2018-07-14T09:25:21.782Z,992.81
2018-07-14T09:26:21.783Z,992.80
2018-07-14T09:27:21.783Z,992.73
2018-07-14T09:28:20.007Z,992.75
2018-07-14T09:29:21.784Z,992.74
2018-07-14T09:30:21.786Z,992.73
2018-07-14T09:31:21.784Z,992.76
2018-07-14T09:32:21.784Z,992.77
2018-07-14T09:33:21.801Z,992.76
2018-07-14T09:34:21.785Z,992.72
2018-07-14T09:35:21.785Z,992.70
2018-07-14T09:36:21.785Z,992.69
2018-07-14T09:37:21.785Z,992.68
2018-07-14T09:38:21.786Z,992.66
2018-07-14T09:39:21.800Z,992.65
2018-07-14T09:40:21.786Z,992.66
2018-07-14T09:41:21.785Z,992.65
2018-07-14T09:42:21.785Z,992.64
2018-07-14T09:43:21.787Z,992.61
2018-07-14T09:44:19.835Z,992.61
2018-07-14T09:45:21.787Z,992.55
2018-07-14T09:46:21.790Z,992.55
2018-07-14T09:47:21.287Z,992.50
2018-07-14T09:48:21.287Z,992.55
2018-07-14T09:49:21.303Z,992.52
2018-07-14T09:50:21.288Z,992.46
2018-07-14T09:51:21.288Z,992.52
2018-07-14T09:52:21.288Z,992.47
2018-07-14T09:53:21.288Z,992.50
2018-07-14T09:54:21.304Z,992.50
2018-07-14T09:55:21.361Z,992.51
2018-07-14T09:56:21.289Z,992.48
2018-07-14T09:57:21.294Z,992.42
2018-07-14T09:58:21.291Z,992.42
2018-07-14T09:59:21.305Z,992.40
2018-07-14T10:00:19.646Z,992.37
2018-07-14T10:01:21.290Z,992.38
2018-07-14T10:02:21.290Z,992.39
2018-07-14T10:03:21.296Z,992.34
2018-07-14T10:04:21.308Z,992.35
2018-07-14T10:05:21.291Z,992.32
2018-07-14T10:06:21.292Z,992.33
2018-07-14T10:07:21.292Z,992.34
2018-07-14T10:08:21.296Z,992.32
2018-07-14T10:09:21.308Z,992.29
2018-07-14T10:10:21.293Z,992.33
2018-07-14T10:11:21.292Z,992.33
2018-07-14T10:12:21.293Z,992.29
2018-07-14T10:13:21.293Z,992.29
2018-07-14T10:14:21.308Z,992.32
2018-07-14T10:15:21.294Z,992.29
2018-07-14T10:16:19.474Z,992.29
2018-07-14T10:17:21.370Z,992.33
2018-07-14T10:18:21.294Z,992.32
2018-07-14T10:19:21.311Z,992.32
2018-07-14T10:20:21.294Z,992.29
2018-07-14T10:21:22.295Z,992.28
2018-07-14T10:22:21.431Z,992.26
2018-07-14T10:23:21.294Z,992.28
2018-07-14T10:24:21.314Z,992.27
2018-07-14T10:25:21.534Z,992.23
2018-07-14T10:26:21.296Z,992.21
2018-07-14T10:27:21.296Z,992.17
2018-07-14T10:28:21.296Z,992.20
2018-07-14T10:29:21.313Z,992.19
2018-07-14T10:30:21.297Z,992.18
2018-07-14T10:31:21.296Z,992.16
2018-07-14T10:32:20.797Z,992.20
2018-07-14T10:33:20.798Z,992.19
2018-07-14T10:34:20.814Z,992.15
2018-07-14T10:35:20.798Z,992.14
2018-07-14T10:36:20.798Z,992.14
2018-07-14T10:37:19.977Z,992.15
2018-07-14T10:38:20.799Z,992.12
2018-07-14T10:39:20.814Z,992.14
2018-07-14T10:40:20.799Z,992.11
2018-07-14T10:41:21.873Z,992.08
2018-07-14T10:42:20.808Z,992.07
2018-07-14T10:43:20.800Z,992.05
2018-07-14T10:44:20.815Z,991.99
2018-07-14T10:45:20.800Z,992.02
2018-07-14T10:46:20.801Z,992.05
2018-07-14T10:47:20.801Z,992.03
2018-07-14T10:48:20.802Z,992.01
2018-07-14T10:49:20.817Z,992.03
2018-07-14T10:50:20.802Z,992.09
2018-07-14T10:51:20.805Z,992.07
2018-07-14T10:52:20.802Z,992.05
2018-07-14T10:53:20.803Z,992.04
2018-07-14T10:54:20.820Z,991.99
2018-07-14T10:55:20.803Z,992.03
2018-07-14T10:56:20.803Z,991.99
2018-07-14T10:57:20.804Z,991.96
2018-07-14T10:58:20.804Z,991.94
2018-07-14T10:59:19.029Z,991.88
2018-07-14T11:00:20.804Z,991.87
2018-07-14T11:01:20.807Z,991.89
2018-07-14T11:02:20.805Z,991.89
2018-07-14T11:03:20.805Z,991.87
2018-07-14T11:04:20.855Z,991.92
2018-07-14T11:05:20.809Z,991.89
2018-07-14T11:06:20.810Z,991.92
2018-07-14T11:07:21.871Z,991.93
2018-07-14T11:08:29.659Z,991.85
2018-07-14T11:09:18.909Z,991.87
2018-07-14T11:10:18.913Z,991.84
2018-07-14T11:11:18.889Z,991.86
2018-07-14T11:12:18.877Z,991.84
2018-07-14T11:13:18.866Z,991.83
2018-07-14T11:14:18.856Z,991.80
2018-07-14T11:15:18.861Z,991.83
2018-07-14T11:16:18.837Z,991.81
2018-07-14T11:17:18.826Z,991.80
2018-07-14T11:18:18.817Z,991.79
2018-07-14T11:19:20.336Z,991.76
2018-07-14T11:20:20.352Z,991.79
2018-07-14T11:21:20.337Z,991.76
2018-07-14T11:22:20.337Z,991.78
2018-07-14T11:23:20.337Z,991.74
2018-07-14T11:24:20.337Z,991.75
2018-07-14T11:25:20.353Z,991.78
2018-07-14T11:26:20.338Z,991.73
2018-07-14T11:27:20.338Z,991.73
2018-07-14T11:28:20.338Z,991.67
2018-07-14T11:29:20.340Z,991.78
2018-07-14T11:30:20.451Z,991.72
2018-07-14T11:31:20.340Z,991.79
2018-07-14T11:32:20.339Z,991.72
2018-07-14T11:33:20.340Z,991.70
2018-07-14T11:34:20.340Z,991.71
2018-07-14T11:35:20.356Z,991.67
2018-07-14T11:36:20.341Z,991.65
2018-07-14T11:37:18.618Z,991.63
2018-07-14T11:38:20.341Z,991.62
2018-07-14T11:39:20.342Z,991.58
2018-07-14T11:40:20.357Z,991.60
2018-07-14T11:41:20.348Z,991.56
2018-07-14T11:42:20.347Z,991.55
2018-07-14T11:43:21.343Z,991.52
2018-07-14T11:44:20.345Z,991.54
2018-07-14T11:45:20.359Z,991.56
2018-07-14T11:46:20.345Z,991.57
2018-07-14T11:47:20.346Z,991.56
2018-07-14T11:48:18.503Z,991.61
2018-07-14T11:49:20.345Z,991.54
2018-07-14T11:50:20.364Z,991.48
2018-07-14T11:51:20.346Z,991.49
2018-07-14T11:52:20.346Z,991.45
2018-07-14T11:53:20.346Z,991.42
2018-07-14T11:54:20.358Z,991.39
2018-07-14T11:55:20.347Z,991.25
2018-07-14T11:56:20.365Z,991.41
2018-07-14T11:57:20.347Z,991.42
2018-07-14T11:58:20.348Z,991.43
2018-07-14T11:59:18.386Z,991.40
2018-07-14T12:00:20.348Z,991.40
2018-07-14T12:01:20.421Z,991.37
2018-07-14T12:02:20.853Z,991.36
2018-07-14T12:03:20.851Z,991.35
2018-07-14T12:04:19.850Z,991.32
2018-07-14T12:05:19.880Z,991.35
2018-07-14T12:06:19.872Z,991.32
2018-07-14T12:07:20.906Z,991.31
2018-07-14T12:08:19.874Z,991.36
2018-07-14T12:09:19.876Z,991.34
2018-07-14T12:10:19.870Z,991.29
2018-07-14T12:11:19.867Z,991.30
2018-07-14T12:12:19.871Z,991.24
2018-07-14T12:13:19.886Z,991.25
2018-07-14T12:14:19.853Z,991.19
2018-07-14T12:15:19.854Z,991.19
2018-07-14T12:16:19.869Z,991.12
2018-07-14T12:17:19.856Z,991.15
2018-07-14T12:18:19.862Z,991.17
2018-07-14T12:19:19.854Z,991.21
2018-07-14T12:20:19.855Z,991.22
2018-07-14T12:21:19.871Z,991.23
2018-07-14T12:22:19.910Z,991.18
2018-07-14T12:23:19.856Z,991.20
2018-07-14T12:24:19.856Z,991.18
2018-07-14T12:25:19.858Z,991.19
2018-07-14T12:26:19.873Z,991.13
2018-07-14T12:27:19.858Z,991.12
2018-07-14T12:28:19.857Z,991.10